Time;durP1;ratioP1;P1;durP2;ratioP2;P2;SDS_P1;SDS_P2;PMS_P1;PMS_P2;Temp;Humidity;BMP_temperature;BMP_pressure;BME280_temperature;BME280_humidity;BME280_pressure;Samples;Min_cycle;Max_cycle;Signal;HPM_P1;HPM_P2
2021/09/10 00:00:59;;;;;;;23.92;14.98;;;;;;;16.06;100.00;100940.25;4971335;28;20118;-77
2021/09/10 00:03:24;;;;;;;22.27;15.73;;;;;;;16.10;100.00;100944.19;4957700;28;20049;-78
2021/09/10 00:05:50;;;;;;;19.30;14.98;;;;;;;16.14;100.00;100933.06;4956687;28;20057;-78
2021/09/10 00:08:16;;;;;;;20.58;14.20;;;;;;;16.18;100.00;100940.63;4973166;28;20079;-76
2021/09/10 00:10:41;;;;;;;18.85;14.77;;;;;;;16.20;100.00;100938.63;4963351;28;20041;-79
2021/09/10 00:13:07;;;;;;;25.38;17.05;;;;;;;16.18;100.00;100932.69;4949369;28;20034;-79
2021/09/10 00:15:33;;;;;;;19.67;14.93;;;;;;;16.18;100.00;100930.91;4998643;28;20045;-78
2021/09/10 00:17:59;;;;;;;21.05;16.30;;;;;;;16.19;100.00;100934.34;4964088;28;20038;-77
2021/09/10 00:20:25;;;;;;;19.92;14.13;;;;;;;16.22;100.00;100945.41;4975520;28;20040;-77
2021/09/10 00:22:50;;;;;;;19.02;14.80;;;;;;;16.28;100.00;100941.22;4958337;28;20049;-77
2021/09/10 00:25:16;;;;;;;19.13;14.68;;;;;;;16.30;100.00;100939.22;4978405;28;20786;-77
2021/09/10 00:27:42;;;;;;;18.88;15.27;;;;;;;16.32;100.00;100937.22;4992298;28;20124;-79
2021/09/10 00:30:09;;;;;;;15.90;13.90;;;;;;;16.35;100.00;100942.97;4958019;28;20185;-76
2021/09/10 00:32:34;;;;;;;20.70;14.10;;;;;;;16.37;100.00;100942.81;4945586;28;20030;-78
2021/09/10 00:35:00;;;;;;;23.10;14.25;;;;;;;16.44;100.00;100949.00;4970396;28;20045;-78
2021/09/10 00:37:26;;;;;;;24.23;15.00;;;;;;;16.53;100.00;100953.22;4986579;28;20057;-79
2021/09/10 00:39:51;;;;;;;18.63;15.23;;;;;;;16.59;100.00;100945.56;4973916;28;20129;-77
2021/09/10 00:42:17;;;;;;;22.70;15.20;;;;;;;16.62;100.00;100951.31;4962019;28;20144;-77
2021/09/10 00:44:43;;;;;;;24.58;16.75;;;;;;;16.65;100.00;100950.13;4977370;28;20406;-77
2021/09/10 00:47:09;;;;;;;21.52;15.85;;;;;;;16.62;100.00;100943.38;4960999;28;20037;-77
2021/09/10 00:49:35;;;;;;;25.63;16.95;;;;;;;16.72;100.00;100943.91;4960986;28;20033;-77
2021/09/10 00:52:01;;;;;;;23.67;15.25;;;;;;;16.64;100.00;100945.84;4976899;28;20566;-77
2021/09/10 00:54:27;;;;;;;22.38;16.30;;;;;;;16.64;100.00;100941.38;4977707;28;20114;-78
2021/09/10 00:56:52;;;;;;;26.90;16.33;;;;;;;16.59;100.00;100937.63;4996076;28;20030;-77
2021/09/10 00:59:18;;;;;;;24.27;17.52;;;;;;;16.55;100.00;100932.69;4969275;28;20118;-80
2021/09/10 01:01:44;;;;;;;22.95;17.02;;;;;;;16.51;100.00;100931.41;4976626;28;20045;-77
2021/09/10 01:04:12;;;;;;;27.70;17.10;;;;;;;16.45;100.00;100934.78;4961284;28;20140;-77
2021/09/10 01:06:38;;;;;;;24.77;16.48;;;;;;;16.43;100.00;100933.31;4975790;28;20156;-79
2021/09/10 01:09:06;;;;;;;23.40;16.42;;;;;;;16.40;100.00;100941.63;4973547;28;20105;-78
2021/09/10 01:11:39;;;;;;;21.20;17.05;;;;;;;16.32;100.00;100931.94;4958633;28;20042;-78
2021/09/10 01:14:05;;;;;;;26.10;18.00;;;;;;;16.29;100.00;100934.91;4983557;28;20088;-77
2021/09/10 01:16:31;;;;;;;20.98;16.33;;;;;;;16.28;100.00;100933.28;4975905;28;20388;-76
2021/09/10 01:18:56;;;;;;;26.15;16.88;;;;;;;16.33;100.00;100938.84;4977007;28;20476;-77
2021/09/10 01:21:23;;;;;;;21.63;16.77;;;;;;;16.35;100.00;100934.22;4977023;28;20125;-77
2021/09/10 01:23:49;;;;;;;19.42;15.15;;;;;;;16.33;100.00;100937.03;4960329;28;20029;-77
2021/09/10 01:26:14;;;;;;;21.00;16.88;;;;;;;16.29;100.00;100940.22;4978918;28;20052;-77
2021/09/10 01:28:40;;;;;;;19.95;14.80;;;;;;;16.27;100.00;100943.03;5000655;28;20038;-77
2021/09/10 01:31:06;;;;;;;20.08;15.73;;;;;;;16.30;100.00;100942.69;4973534;28;20042;-78
2021/09/10 01:33:31;;;;;;;22.58;16.40;;;;;;;16.26;100.00;100932.66;4973311;28;20065;-77
2021/09/10 01:35:57;;;;;;;21.00;16.38;;;;;;;16.25;100.00;100931.81;4957250;28;20038;-81
2021/09/10 01:38:24;;;;;;;19.98;16.63;;;;;;;16.20;100.00;100936.84;4954940;28;20439;-76
2021/09/10 01:40:50;;;;;;;24.17;16.20;;;;;;;16.15;100.00;100940.00;4972904;28;20034;-78
2021/09/10 01:43:16;;;;;;;17.67;15.38;;;;;;;16.13;100.00;100930.59;4956550;28;20034;-79
2021/09/10 01:45:41;;;;;;;21.50;16.85;;;;;;;16.11;100.00;100935.25;4956187;28;20132;-79
2021/09/10 01:48:07;;;;;;;24.48;16.75;;;;;;;16.02;100.00;100939.78;4951038;28;20672;-77
2021/09/10 01:50:32;;;;;;;21.27;16.38;;;;;;;15.97;100.00;100939.47;4975416;28;20045;-77
2021/09/10 01:52:58;;;;;;;20.63;15.45;;;;;;;15.91;100.00;100937.56;4992361;28;20033;-78
2021/09/10 01:55:24;;;;;;;19.55;15.68;;;;;;;15.86;100.00;100935.44;4976126;28;20034;-77
2021/09/10 01:57:51;;;;;;;22.50;16.25;;;;;;;15.84;100.00;100940.09;4980459;28;20040;-79
2021/09/10 02:00:18;;;;;;;22.05;17.00;;;;;;;15.81;100.00;100947.56;4975602;28;20130;-77
2021/09/10 02:02:45;;;;;;;20.88;15.65;;;;;;;15.78;100.00;100956.66;4956070;28;20042;-79
2021/09/10 02:05:10;;;;;;;21.92;16.65;;;;;;;15.78;100.00;100954.00;4957245;28;20046;-78
2021/09/10 02:07:36;;;;;;;21.83;15.73;;;;;;;15.81;100.00;100956.31;4940787;28;20137;-78
2021/09/10 02:10:08;;;;;;;22.05;17.35;;;;;;;15.91;100.00;100967.47;4956534;28;20487;-77
2021/09/10 02:12:34;;;;;;;20.03;17.43;;;;;;;15.96;100.00;100964.31;4970446;22;20026;-78
2021/09/10 02:14:59;;;;;;;23.13;17.20;;;;;;;15.89;100.00;100958.88;4995442;28;20384;-81
2021/09/10 02:17:25;;;;;;;22.83;17.30;;;;;;;15.94;100.00;100956.53;4993794;28;20141;-79
2021/09/10 02:19:50;;;;;;;22.65;17.27;;;;;;;15.88;100.00;100962.53;5009204;28;20458;-80
2021/09/10 02:22:16;;;;;;;23.73;17.05;;;;;;;15.85;100.00;100962.06;5031278;28;20034;-79
2021/09/10 02:24:41;;;;;;;21.75;16.58;;;;;;;15.84;100.00;100960.41;4978882;28;20604;-79
2021/09/10 02:27:07;;;;;;;19.48;16.55;;;;;;;15.88;100.00;100965.19;5009032;28;20025;-79
2021/09/10 02:29:33;;;;;;;24.00;17.30;;;;;;;15.89;100.00;100958.88;4969298;28;20038;-78
2021/09/10 02:31:58;;;;;;;20.60;16.55;;;;;;;15.95;100.00;100963.50;4974314;28;20077;-79
2021/09/10 02:34:24;;;;;;;24.60;17.17;;;;;;;16.06;100.00;100975.47;4979248;28;20088;-79
2021/09/10 02:36:49;;;;;;;20.00;16.80;;;;;;;16.08;100.00;100964.72;4978249;28;20125;-79
2021/09/10 02:39:15;;;;;;;21.05;16.80;;;;;;;16.14;100.00;100979.88;5010114;28;20038;-78
2021/09/10 02:41:40;;;;;;;23.75;16.80;;;;;;;16.17;100.00;100981.34;4994071;28;20029;-78
2021/09/10 02:44:07;;;;;;;21.60;16.25;;;;;;;16.17;100.00;100970.78;4948589;28;20045;-79
2021/09/10 02:46:33;;;;;;;20.63;16.10;;;;;;;16.13;100.00;100978.22;4958045;28;20035;-79
2021/09/10 02:49:00;;;;;;;24.38;16.17;;;;;;;16.12;100.00;100982.72;4972648;28;20049;-79
2021/09/10 02:51:25;;;;;;;19.27;16.52;;;;;;;16.11;100.00;100978.41;4974247;28;20038;-80
2021/09/10 02:53:51;;;;;;;22.05;15.45;;;;;;;16.13;100.00;100978.22;5005279;28;20038;-80
2021/09/10 02:56:17;;;;;;;22.58;16.30;;;;;;;16.17;100.00;100982.16;5011339;28;20064;-78
2021/09/10 02:58:43;;;;;;;21.85;15.55;;;;;;;16.19;100.00;100980.16;4956483;28;20034;-80
2021/09/10 03:01:09;;;;;;;18.05;15.25;;;;;;;16.18;100.00;100980.34;4973865;28;20125;-78
2021/09/10 03:03:34;;;;;;;20.85;14.50;;;;;;;16.18;100.00;100973.25;4973362;28;20125;-78
2021/09/10 03:06:03;;;;;;;18.70;15.55;;;;;;;16.23;100.00;100970.03;4943114;28;20476;-78
2021/09/10 03:08:28;;;;;;;22.95;16.85;;;;;;;16.33;100.00;100981.19;4948161;28;20042;-81
2021/09/10 03:10:54;;;;;;;22.65;16.67;;;;;;;16.40;100.00;100979.50;4997367;28;20479;-79
2021/09/10 03:13:19;;;;;;;18.33;15.32;;;;;;;16.38;100.00;100975.38;4978550;28;20141;-78
2021/09/10 03:15:45;;;;;;;19.08;15.82;;;;;;;16.42;100.00;100977.47;4992210;28;20049;-78
2021/09/10 03:18:11;;;;;;;23.08;17.25;;;;;;;16.51;100.00;100971.13;4985796;28;20033;-77
2021/09/10 03:20:37;;;;;;;23.92;17.25;;;;;;;16.60;100.00;100979.81;4980337;28;20503;-80
2021/09/10 03:23:02;;;;;;;23.08;16.95;;;;;;;16.71;100.00;100975.91;4985714;28;20030;-81
2021/09/10 03:25:28;;;;;;;24.20;17.98;;;;;;;16.76;100.00;100975.34;4977829;28;20050;-81
2021/09/10 03:27:53;;;;;;;23.80;16.33;;;;;;;16.73;100.00;100979.19;5005559;28;20049;-80
2021/09/10 03:30:20;;;;;;;18.98;16.10;;;;;;;16.68;100.00;100974.44;4959851;28;20064;-81
2021/09/10 03:32:47;;;;;;;19.52;16.02;;;;;;;16.70;100.00;100983.00;4965606;28;20038;-79
2021/09/10 03:35:12;;;;;;;19.30;15.93;;;;;;;16.64;100.00;100972.34;4957205;28;20046;-82
2021/09/10 03:37:38;;;;;;;21.80;15.98;;;;;;;16.63;100.00;100970.69;4972990;28;20121;-79
2021/09/10 03:40:05;;;;;;;19.70;16.55;;;;;;;16.65;100.00;100976.59;4956769;28;20571;-78
2021/09/10 03:42:30;;;;;;;20.63;16.10;;;;;;;16.56;100.00;100962.66;4941298;28;20031;-79
2021/09/10 03:44:56;;;;;;;21.50;16.73;;;;;;;16.57;100.00;100972.22;4989391;28;20034;-79
2021/09/10 03:47:22;;;;;;;23.65;17.85;;;;;;;16.60;100.00;100966.56;4958150;28;20066;-78
2021/09/10 03:49:47;;;;;;;25.00;18.92;;;;;;;16.54;100.00;100969.94;4959042;28;20050;-78
2021/09/10 03:52:13;;;;;;;19.73;16.52;;;;;;;16.55;100.00;100977.69;4960301;28;20118;-79
2021/09/10 03:54:38;;;;;;;21.60;17.02;;;;;;;16.54;100.00;100975.25;4944204;28;20385;-80
2021/09/10 03:57:04;;;;;;;18.48;15.60;;;;;;;16.47;100.00;100969.03;4969820;28;20079;-79
2021/09/10 03:59:29;;;;;;;20.30;15.80;;;;;;;16.50;100.00;100973.94;4963199;28;20089;-79
2021/09/10 04:01:55;;;;;;;20.40;16.42;;;;;;;16.51;100.00;100967.66;5004457;28;20105;-79
2021/09/10 04:04:21;;;;;;;20.75;15.98;;;;;;;16.52;100.00;100967.47;4979642;28;20068;-81
2021/09/10 04:06:46;;;;;;;21.38;17.60;;;;;;;16.52;100.00;100958.72;4978729;28;20053;-81
2021/09/10 04:09:12;;;;;;;26.77;18.23;;;;;;;16.51;100.00;100957.06;4979395;28;20045;-79
2021/09/10 04:11:38;;;;;;;19.95;15.90;;;;;;;16.45;100.00;100957.78;4976567;28;20050;-80
2021/09/10 04:14:05;;;;;;;21.10;16.38;;;;;;;16.40;100.00;100957.50;4976240;28;1027893;-81
2021/09/10 04:16:32;;;;;;;21.65;16.83;;;;;;;16.44;100.00;100953.47;4980466;28;20042;-80
2021/09/10 04:18:57;;;;;;;27.88;18.85;;;;;;;16.42;100.00;100958.13;4979830;28;20041;-80
2021/09/10 04:21:23;;;;;;;28.45;20.80;;;;;;;16.44;100.00;100962.25;4964468;28;20129;-80
2021/09/10 04:23:48;;;;;;;28.65;19.95;;;;;;;16.44;100.00;100962.25;4982327;28;21810;-79
2021/09/10 04:26:14;;;;;;;21.45;16.73;;;;;;;16.44;100.00;100964.88;4998424;28;20048;-78
2021/09/10 04:28:40;;;;;;;25.70;19.92;;;;;;;16.50;100.00;100968.63;4997097;28;20033;-79
2021/09/10 04:31:05;;;;;;;38.00;25.13;;;;;;;16.63;100.00;100973.31;5013425;28;20030;-80
2021/09/10 04:33:31;;;;;;;33.10;25.58;;;;;;;16.67;100.00;100964.84;4981497;28;20038;-80
2021/09/10 04:35:56;;;;;;;33.60;24.30;;;;;;;16.73;100.00;100960.66;4945110;28;20409;-80
2021/09/10 04:38:22;;;;;;;37.22;26.70;;;;;;;16.74;100.00;100965.78;4976867;28;20125;-80
2021/09/10 04:40:47;;;;;;;38.25;27.75;;;;;;;16.75;100.00;100963.94;4977061;28;20030;-78
2021/09/10 04:43:13;;;;;;;38.05;25.00;;;;;;;16.77;100.00;100964.59;4958164;28;20045;-80
2021/09/10 04:45:39;;;;;;;32.50;24.90;;;;;;;16.85;100.00;100972.47;4960768;28;20046;-80
2021/09/10 04:48:05;;;;;;;41.30;28.95;;;;;;;16.91;100.00;100974.41;4964704;28;20042;-81
2021/09/10 04:50:30;;;;;;;35.28;24.83;;;;;;;16.94;100.00;100981.16;4960081;28;20038;-80
2021/09/10 04:52:56;;;;;;;31.30;23.13;;;;;;;16.98;100.00;100976.31;4961203;28;20034;-81
2021/09/10 04:55:21;;;;;;;31.90;22.45;;;;;;;17.05;100.00;100990.47;4963725;28;20041;-81
2021/09/10 04:57:47;;;;;;;30.70;23.02;;;;;;;17.05;100.00;100987.84;5005978;28;20030;-81
2021/09/10 05:00:13;;;;;;;30.40;23.73;;;;;;;17.08;100.00;100996.25;4961375;28;20041;-80
2021/09/10 05:02:39;;;;;;;33.58;24.60;;;;;;;17.12;100.00;100994.03;4974097;28;20103;-80
2021/09/10 05:05:05;;;;;;;38.95;27.10;;;;;;;17.16;100.00;101003.28;4988104;28;20041;-81
2021/09/10 05:07:31;;;;;;;46.63;27.60;;;;;;;17.16;100.00;101011.22;4974460;28;20092;-81
2021/09/10 05:09:56;;;;;;;53.65;31.20;;;;;;;17.12;100.00;101007.28;4977759;28;20035;-78
2021/09/10 05:12:22;;;;;;;46.95;29.52;;;;;;;17.12;100.00;101016.06;4976514;28;20042;-80
2021/09/10 05:14:52;;;;;;;56.88;32.83;;;;;;;17.10;100.00;101015.44;5006152;28;20038;-77
2021/09/10 05:17:18;;;;;;;39.15;29.02;;;;;;;17.08;100.00;101020.09;5008231;28;20057;-78
2021/09/10 05:19:44;;;;;;;45.88;29.80;;;;;;;17.05;100.00;101019.63;4995557;28;20072;-78
2021/09/10 05:22:10;;;;;;;56.85;36.10;;;;;;;17.12;100.00;101028.47;4969575;28;20548;-81
2021/09/10 05:24:35;;;;;;;61.88;39.90;;;;;;;17.18;100.00;101038.38;5003899;28;20120;-80
2021/09/10 05:27:01;;;;;;;53.28;35.83;;;;;;;17.24;100.00;101032.31;4971010;28;20638;-81
2021/09/10 05:29:26;;;;;;;55.38;36.40;;;;;;;17.17;100.00;101027.94;4964032;28;20041;-79
2021/09/10 05:31:52;;;;;;;43.10;30.60;;;;;;;17.20;100.00;101024.94;5000762;28;20033;-79
2021/09/10 05:34:17;;;;;;;53.38;35.08;;;;;;;17.20;100.00;101017.81;4980584;28;20030;-79
2021/09/10 05:36:43;;;;;;;53.15;35.55;;;;;;;17.21;100.00;101014.13;4981663;28;20042;-78
2021/09/10 05:39:08;;;;;;;59.03;38.10;;;;;;;17.30;100.00;101015.69;4995987;28;20492;-78
2021/09/10 05:41:34;;;;;;;49.28;34.67;;;;;;;17.34;100.00;101020.63;4994187;28;20065;-80
2021/09/10 05:43:59;;;;;;;57.05;37.38;;;;;;;17.41;100.00;101032.16;4995451;28;20093;-77
2021/09/10 05:46:25;;;;;;;52.90;35.20;;;;;;;17.45;100.00;101026.28;4959366;28;20037;-79
2021/09/10 05:48:50;;;;;;;56.85;38.47;;;;;;;17.52;100.00;101034.31;4961377;28;20093;-78
2021/09/10 05:51:17;;;;;;;56.95;37.75;;;;;;;17.54;100.00;101045.56;4980606;28;20057;-79
2021/09/10 05:53:42;;;;;;;65.95;40.30;;;;;;;17.65;100.00;101068.97;4978568;28;20037;-78
2021/09/10 05:56:08;;;;;;;70.07;42.40;;;;;;;17.77;100.00;101068.50;4959199;28;20061;-78
2021/09/10 05:58:33;;;;;;;75.88;43.78;;;;;;;17.74;100.00;101066.19;4980958;28;20030;-79
2021/09/10 06:00:59;;;;;;;73.20;43.00;;;;;;;17.63;100.00;101075.44;4994256;28;20113;-80
2021/09/10 06:03:25;;;;;;;87.85;48.97;;;;;;;17.56;100.00;101075.38;4978160;28;20120;-79
2021/09/10 06:05:51;;;;;;;97.22;50.35;;;;;;;17.47;100.00;101085.25;5012456;28;20030;-79
2021/09/10 06:08:16;;;;;;;99.05;47.35;;;;;;;17.51;100.00;101067.16;4982255;28;20053;-81
2021/09/10 06:10:42;;;;;;;226.90;50.05;;;;;;;17.29;100.00;101035.25;4987413;28;20088;-80
2021/09/10 06:13:10;;;;;;;95.72;45.15;;;;;;;17.20;100.00;101041.66;4962309;28;20038;-82
2021/09/10 06:15:36;;;;;;;86.45;48.85;;;;;;;17.26;100.00;101093.94;4972266;28;20095;-80
2021/09/10 06:18:02;;;;;;;91.80;47.50;;;;;;;17.15;100.00;101091.72;4974987;28;20500;-80
2021/09/10 06:20:28;;;;;;;97.70;46.78;;;;;;;17.11;100.00;101087.81;4979114;28;20068;-80
2021/09/10 06:22:53;;;;;;;80.80;44.88;;;;;;;17.13;100.00;101101.69;5017281;28;20036;-82
2021/09/10 06:25:19;;;;;;;92.45;49.22;;;;;;;17.19;100.00;101118.69;5012065;28;20153;-80
2021/09/10 06:27:45;;;;;;;125.90;56.95;;;;;;;17.17;100.00;101112.75;5005203;28;20128;-79
2021/09/10 06:30:11;;;;;;;155.43;61.72;;;;;;;17.13;100.00;101105.16;5018800;28;20058;-79
2021/09/10 06:32:37;;;;;;;124.57;59.30;;;;;;;17.06;100.00;101104.22;4975313;28;20030;-83
2021/09/10 06:35:03;;;;;;;110.10;56.25;;;;;;;17.17;100.00;101148.03;4960363;28;20038;-79
2021/09/10 06:37:28;;;;;;;121.30;58.95;;;;;;;17.18;100.00;101162.09;4959088;28;20042;-79
2021/09/10 06:39:54;;;;;;;112.70;59.20;;;;;;;17.17;100.00;101165.78;4976011;28;20467;-79
2021/09/10 06:42:19;;;;;;;141.65;64.53;;;;;;;17.17;100.00;101152.53;4959634;28;20038;-80
2021/09/10 06:44:47;;;;;;;127.70;63.35;;;;;;;17.06;100.00;101124.63;4960862;28;20038;-81
2021/09/10 06:47:13;;;;;;;136.10;62.38;;;;;;;17.15;100.00;101120.88;4961660;28;20038;-79
2021/09/10 06:49:38;;;;;;;104.45;56.42;;;;;;;17.16;100.00;101111.09;4984970;28;20504;-79
2021/09/10 06:52:04;;;;;;;111.22;58.53;;;;;;;17.17;100.00;101110.94;4974080;28;20038;-78
2021/09/10 06:54:29;;;;;;;204.07;59.78;;;;;;;17.10;100.00;101086.16;4987252;28;20048;-80
2021/09/10 06:56:55;;;;;;;131.48;58.40;;;;;;;17.10;100.00;101071.09;5005943;28;20406;-79
2021/09/10 06:59:20;;;;;;;125.90;56.58;;;;;;;17.08;100.00;101070.44;5006116;28;20065;-78
2021/09/10 07:01:46;;;;;;;90.97;49.75;;;;;;;17.10;100.00;101084.34;4962137;28;20412;-79
2021/09/10 07:04:12;;;;;;;118.05;55.78;;;;;;;17.05;100.00;101078.75;4979413;28;20066;-81
2021/09/10 07:06:38;;;;;;;98.53;53.40;;;;;;;17.04;100.00;101093.00;4977750;28;20271;-78
2021/09/10 07:09:04;;;;;;;116.97;51.42;;;;;;;17.07;100.00;101102.41;4963316;28;20038;-79
2021/09/10 07:11:32;;;;;;;91.68;49.90;;;;;;;17.04;100.00;101100.94;4991748;28;20038;-79
2021/09/10 07:13:57;;;;;;;112.53;49.88;;;;;;;17.03;100.00;101111.75;4989625;28;20083;-79
2021/09/10 07:16:23;;;;;;;121.97;50.15;;;;;;;16.97;100.00;101109.78;4992174;28;20084;-79
2021/09/10 07:18:48;;;;;;;67.95;42.60;;;;;;;17.03;100.00;101123.16;4993104;28;20841;-79
2021/09/10 07:21:14;;;;;;;91.15;45.80;;;;;;;16.99;100.00;101121.03;4972675;28;20035;-81
2021/09/10 07:23:39;;;;;;;90.82;50.92;;;;;;;17.04;100.00;101135.38;4990934;28;20757;-80
2021/09/10 07:26:05;;;;;;;86.32;48.67;;;;;;;17.08;100.00;101144.66;4981105;28;20030;-80
2021/09/10 07:28:31;;;;;;;122.32;50.67;;;;;;;17.09;100.00;101148.94;5017033;28;20155;-81
2021/09/10 07:30:57;;;;;;;92.50;49.63;;;;;;;17.12;100.00;101151.25;5007288;28;20439;-79
2021/09/10 07:33:24;;;;;;;80.47;47.65;;;;;;;17.11;100.00;101157.53;4980714;28;20030;-79
2021/09/10 07:35:49;;;;;;;89.22;50.55;;;;;;;17.09;100.00;101153.41;4962403;28;20049;-81
2021/09/10 07:38:15;;;;;;;91.30;47.35;;;;;;;17.10;100.00;101157.69;4946405;28;20034;-82
2021/09/10 07:40:40;;;;;;;83.57;46.80;;;;;;;17.09;100.00;101159.53;4979450;28;20077;-82
2021/09/10 07:43:06;;;;;;;83.85;48.55;;;;;;;17.14;100.00;101159.00;4947338;28;20035;-83
2021/09/10 07:45:31;;;;;;;93.80;51.17;;;;;;;17.25;100.00;101171.00;4964103;28;20476;-82
2021/09/10 07:47:57;;;;;;;91.40;50.75;;;;;;;17.32;100.00;101177.22;4962986;28;20109;-80
2021/09/10 07:50:22;;;;;;;88.47;49.80;;;;;;;17.29;100.00;101177.56;4982130;28;20041;-81
2021/09/10 07:52:48;;;;;;;75.50;44.17;;;;;;;17.35;100.00;101186.63;4971389;28;20053;-80
2021/09/10 07:55:13;;;;;;;76.60;45.47;;;;;;;17.35;100.00;101184.81;4995986;28;20679;-81
2021/09/10 07:57:39;;;;;;;75.05;45.60;;;;;;;17.40;100.00;101193.03;5004210;28;20034;-78
2021/09/10 08:00:05;;;;;;;84.82;45.50;;;;;;;17.42;100.00;101198.16;5013533;28;20038;-80
2021/09/10 08:02:30;;;;;;;92.47;51.15;;;;;;;17.40;100.00;101187.75;4962803;28;20034;-80
2021/09/10 08:04:56;;;;;;;90.15;49.90;;;;;;;17.43;100.00;101191.88;4980339;28;20042;-82
2021/09/10 08:07:22;;;;;;;77.05;44.00;;;;;;;17.42;100.00;101192.88;5003356;28;20038;-83
2021/09/10 08:09:47;;;;;;;88.93;49.30;;;;;;;17.42;100.00;101183.09;5013557;28;20148;-80
2021/09/10 08:12:13;;;;;;;98.70;49.50;;;;;;;17.45;100.00;101189.88;5005825;28;20071;-81
2021/09/10 08:14:39;;;;;;;87.10;47.70;;;;;;;17.44;100.00;101185.56;4982543;28;20131;-81
2021/09/10 08:17:11;;;;;;;94.45;48.97;;;;;;;17.41;100.00;101189.41;5012348;23;20045;-78
2021/09/10 08:19:43;;;;;;;76.95;45.95;;;;;;;17.45;100.00;101197.81;5016609;28;20498;-78
2021/09/10 08:22:08;;;;;;;87.60;49.03;;;;;;;17.44;100.00;101202.31;5001174;28;20045;-76
2021/09/10 08:24:34;;;;;;;88.07;47.95;;;;;;;17.45;100.00;101208.44;4973695;28;20124;-77
2021/09/10 08:26:59;;;;;;;72.38;45.58;;;;;;;17.46;100.00;101221.50;5020649;28;20627;-77
2021/09/10 08:29:25;;;;;;;82.20;46.15;;;;;;;17.46;100.00;101226.81;5004384;28;20038;-77
2021/09/10 08:31:50;;;;;;;68.32;42.63;;;;;;;17.45;100.00;101227.81;5005230;28;20029;-79
2021/09/10 08:34:16;;;;;;;79.85;46.45;;;;;;;17.45;100.00;101235.75;5020971;28;20041;-77
2021/09/10 08:36:42;;;;;;;92.75;51.95;;;;;;;17.51;100.00;101252.78;4988783;28;20037;-76
2021/09/10 08:39:07;;;;;;;91.72;50.28;;;;;;;17.47;100.00;101252.31;5004885;28;20683;-77
2021/09/10 08:41:34;;;;;;;94.25;49.95;;;;;;;17.51;100.00;101258.09;4988067;28;20041;-76
2021/09/10 08:44:05;;;;;;;133.43;53.45;;;;;;;17.53;100.00;101253.41;4987815;28;20561;-78
2021/09/10 08:46:31;;;;;;;120.65;51.88;;;;;;;17.52;100.00;101243.84;5022113;28;20033;-78
2021/09/10 08:48:57;;;;;;;74.18;46.25;;;;;;;17.51;100.00;101250.94;5020477;28;20037;-75
2021/09/10 08:51:22;;;;;;;90.35;50.55;;;;;;;17.53;100.00;101261.38;5021365;28;20044;-78
2021/09/10 08:53:48;;;;;;;88.03;47.83;;;;;;;17.49;100.00;101250.31;4984410;28;20040;-78
2021/09/10 08:56:14;;;;;;;86.82;41.63;;;;;;;17.49;100.00;101246.84;4979264;28;20166;-79
2021/09/10 08:58:39;;;;;;;77.63;42.63;;;;;;;17.50;100.00;101232.59;5004342;28;20068;-78
2021/09/10 09:01:05;;;;;;;158.27;40.97;;;;;;;17.46;100.00;101220.66;5021242;28;20026;-77
2021/09/10 09:03:32;;;;;;;66.95;38.03;;;;;;;17.43;100.00;101216.56;5005203;28;20087;-77
2021/09/10 09:05:58;;;;;;;51.22;32.38;;;;;;;17.39;100.00;101217.94;5006196;28;20076;-78
2021/09/10 09:08:24;;;;;;;53.20;31.40;;;;;;;17.37;100.00;101216.47;4968526;28;20069;-77
2021/09/10 09:10:52;;;;;;;53.65;32.60;;;;;;;17.34;100.00;101209.69;4999778;28;20061;-77
2021/09/10 09:13:18;;;;;;;61.33;31.00;;;;;;;17.30;100.00;101216.34;4994244;28;20041;-77
2021/09/10 09:15:44;;;;;;;49.15;29.33;;;;;;;17.33;100.00;101216.00;5013568;28;20037;-78
2021/09/10 09:18:09;;;;;;;44.67;27.08;;;;;;;17.30;100.00;101205.75;5029406;28;20033;-77
2021/09/10 09:20:35;;;;;;;43.03;25.85;;;;;;;17.27;100.00;101203.44;5009458;28;20025;-78
2021/09/10 09:23:10;;;;;;;33.63;21.80;;;;;;;17.25;100.00;101195.69;5013045;28;20037;-77
2021/09/10 09:25:48;;;;;;;39.50;22.98;;;;;;;17.23;100.00;101197.66;5011134;28;20053;-78
2021/09/10 09:28:28;;;;;;;36.47;23.02;;;;;;;17.23;100.00;101191.56;5029540;28;20501;-78
2021/09/10 09:31:01;;;;;;;39.88;24.88;;;;;;;17.26;100.00;101196.50;5021888;28;20096;-76
2021/09/10 09:33:41;;;;;;;39.13;24.02;;;;;;;17.31;100.00;101194.97;5031149;28;20493;-76
2021/09/10 09:36:12;;;;;;;39.22;22.65;;;;;;;17.31;100.00;101196.81;5012754;28;20041;-77
2021/09/10 09:38:40;;;;;;;43.95;22.27;;;;;;;17.29;100.00;101193.47;5029720;28;20409;-78
2021/09/10 09:41:11;;;;;;;40.40;21.33;;;;;;;17.26;100.00;101194.66;5013674;28;20030;-78
2021/09/10 09:43:41;;;;;;;33.95;19.63;;;;;;;17.28;100.00;101190.00;5013997;28;20437;-77
2021/09/10 09:46:11;;;;;;;34.13;22.13;;;;;;;17.30;100.00;101188.00;4997524;28;20048;-80
2021/09/10 09:48:43;;;;;;;35.83;20.98;;;;;;;17.34;100.00;101196.41;5012813;28;20167;-76
2021/09/10 09:51:10;;;;;;;30.33;19.90;;;;;;;17.36;100.00;101190.94;5014695;28;20053;-78
2021/09/10 09:53:37;;;;;;;28.40;17.95;;;;;;;17.38;100.00;101186.28;5028616;28;20030;-78
2021/09/10 09:56:07;;;;;;;32.50;18.85;;;;;;;17.39;100.00;101190.59;5030918;28;20033;-78
2021/09/10 09:58:34;;;;;;;31.70;18.73;;;;;;;17.44;100.00;101196.16;5014880;28;20041;-78
2021/09/10 10:01:00;;;;;;;32.53;18.60;;;;;;;17.46;100.00;101205.59;5015149;28;20026;-78
2021/09/10 10:03:25;;;;;;;28.80;18.58;;;;;;;17.47;100.00;101217.84;5049172;28;20049;-79
2021/09/10 10:06:01;;;;;;;25.25;16.77;;;;;;;17.50;100.00;101214.84;5017243;28;20033;-79
2021/09/10 10:08:40;;;;;;;24.90;16.05;;;;;;;17.51;100.00;101213.81;5017370;28;20060;-77
2021/09/10 10:11:29;;;;;;;29.38;16.02;;;;;;;17.50;100.00;101198.94;5016741;28;20386;-79
2021/09/10 10:14:00;;;;;;;23.45;15.20;;;;;;;17.55;100.00;101203.66;5005898;28;20046;-78
2021/09/10 10:16:43;;;;;;;25.38;15.57;;;;;;;17.58;100.00;101200.66;5011426;28;20057;-78
2021/09/10 10:19:21;;;;;;;22.15;14.85;;;;;;;17.64;100.00;101218.50;5027581;28;20116;-77
2021/09/10 10:21:58;;;;;;;23.05;14.65;;;;;;;17.67;100.00;101223.47;5015517;28;20025;-74
2021/09/10 10:24:44;;;;;;;24.02;14.63;;;;;;;17.73;100.00;101224.56;5013967;28;20045;-78
2021/09/10 10:27:34;;;;;;;27.40;14.43;;;;;;;17.77;100.00;101231.16;5027154;28;20119;-77
2021/09/10 10:30:03;;;;;;;19.80;13.32;;;;;;;17.82;100.00;101226.13;4998882;28;20043;-77
2021/09/10 10:32:38;;;;;;;20.58;13.23;;;;;;;17.86;100.00;101224.78;5008066;28;20026;-77
2021/09/10 10:35:26;;;;;;;20.73;12.93;;;;;;;17.93;100.00;101224.03;4991840;28;20044;-77
2021/09/10 10:38:03;;;;;;;17.92;12.13;;;;;;;18.00;100.00;101224.97;4991360;28;20029;-76
2021/09/10 10:40:29;;;;;;;21.52;13.57;;;;;;;18.08;100.00;101225.69;5029915;28;20049;-79
2021/09/10 10:42:58;;;;;;;17.17;13.20;;;;;;;18.09;100.00;101229.97;4995464;28;20785;-77
2021/09/10 10:45:41;;;;;;;20.30;15.20;;;;;;;18.14;100.00;101226.78;5005735;28;20038;-77
2021/09/10 10:48:29;;;;;;;19.92;14.43;;;;;;;18.14;100.00;101228.59;4983201;28;20128;-78
2021/09/10 10:51:24;;;;;;;21.42;15.13;;;;;;;18.17;100.00;101226.41;4984312;28;20045;-77
2021/09/10 10:53:52;;;;;;;19.85;15.73;;;;;;;18.18;100.00;101222.75;5000535;28;20069;-77
2021/09/10 10:56:21;;;;;;;20.92;16.05;;;;;;;18.26;100.00;101217.31;5002300;28;20048;-75
2021/09/10 10:59:06;;;;;;;21.55;15.35;;;;;;;18.26;100.00;101217.31;5009405;28;20033;-76
2021/09/10 11:02:11;;;;;;;24.00;16.58;;;;;;;18.35;100.00;101220.72;5010846;28;20037;-76